MSC Jordan — HPMK — position and weather

sailwx.info

Track history (hours):
 
Tides and Currents Weather Stations Pressure Air Temp Water Temp Dewpoint Dewpoint Depression Visibility Wind Speed Wind Dir Waves Ship Positions

MSC Jordan

Last reported at 2014-Jul-30 18:13 UTC. Time now 2014-Jul-31 23:48 UTC.
Position N 36°54' W 001°31'.

Length 237 m; draft 12 m.

Type: Ship (hazmat cat B). MMSI: 355194000.

Date/timePositionNaut miles runAvg speedWind from/ knotsBaromVisibWave heightAir tempDewpointWater temp
2014-Jul-30 18:13N 36°54' W 001°31'1818.3
2014-Jul-30 17:14N 37°06' W 001°14'1318.4
2014-Jul-30 16:33N 37°15' W 001°02'1918.8
2014-Jul-30 15:33N 37°27' W 000°45'1918.7
2014-Jul-30 14:33N 37°41' W 000°29'2218.7
2014-Jul-30 13:23N 37°59' W 000°13'88 1.8
2014-Jul-28 13:25N 39°26' W 000°20'0 0.0
2014-Jul-28 12:33N 39°26' W 000°20'0 0.0
2014-Jul-28 11:33N 39°26' W 000°20'2 1.9
2014-Jul-28 10:33N 39°25' W 000°18'2 0.4
2014-Jul-28 05:32N 39°23' W 000°17'0 0.0
2014-Jul-28 04:32N 39°23' W 000°17'0 0.0
2014-Jul-28 03:32N 39°23' W 000°17'0 0.0
2014-Jul-28 00:11N 39°23' W 000°17'0 0.0
2014-Jul-27 23:05N 39°23' W 000°17'0 0.0
2014-Jul-27 20:29N 39°23' W 000°17'0 0.0
2014-Jul-27 19:29N 39°23' W 000°17'0 0.0
2014-Jul-27 18:32N 39°23' W 000°17'0 0.0
2014-Jul-27 17:26N 39°23' W 000°17'0 0.2
2014-Jul-27 16:23N 39°24' W 000°17'8712.3
2014-Jul-27 09:20N 37°57' W 000°10'1816.3
2014-Jul-27 08:13N 37°42' W 000°23'1116.1
2014-Jul-27 07:31N 37°33' W 000°31'2015.9
2014-Jul-27 06:15N 37°19' W 000°50'23016.3
2014-Jul-26 16:07N 35°59' W 005°19'1218.9
2014-Jul-26 15:30N 35°56' W 005°33'1819.3
2014-Jul-26 14:33N 35°52' W 005°54'  
Track history (hours):
 
Tides and Currents Weather Stations Pressure Air Temp Water Temp Dewpoint Dewpoint Depression Visibility Wind Speed Wind Dir Waves Ship Positions

MSC Jordan

Last reported at 2014-Jul-30 18:13 UTC. Time now 2014-Jul-31 23:48 UTC.
Position N 36°54' W 001°31'.

Length 237 m; draft 12 m.

Type: Ship (hazmat cat B). MMSI: 355194000.

Date/timePositionNaut miles runAvg speedWind from/ knotsBaromVisibWave heightAir tempDewpointWater temp
2014-Jul-30 18:13N 36°54' W 001°31'1818.3
2014-Jul-30 17:14N 37°06' W 001°14'1318.4
2014-Jul-30 16:33N 37°15' W 001°02'1918.8
2014-Jul-30 15:33N 37°27' W 000°45'1918.7
2014-Jul-30 14:33N 37°41' W 000°29'2218.7
2014-Jul-30 13:23N 37°59' W 000°13'88 1.8
2014-Jul-28 13:25N 39°26' W 000°20'0 0.0
2014-Jul-28 12:33N 39°26' W 000°20'0 0.0
2014-Jul-28 11:33N 39°26' W 000°20'2 1.9
2014-Jul-28 10:33N 39°25' W 000°18'2 0.4
2014-Jul-28 05:32N 39°23' W 000°17'0 0.0
2014-Jul-28 04:32N 39°23' W 000°17'0 0.0
2014-Jul-28 03:32N 39°23' W 000°17'0 0.0
2014-Jul-28 00:11N 39°23' W 000°17'0 0.0
2014-Jul-27 23:05N 39°23' W 000°17'0 0.0
2014-Jul-27 20:29N 39°23' W 000°17'0 0.0
2014-Jul-27 19:29N 39°23' W 000°17'0 0.0
2014-Jul-27 18:32N 39°23' W 000°17'0 0.0
2014-Jul-27 17:26N 39°23' W 000°17'0 0.2
2014-Jul-27 16:23N 39°24' W 000°17'8712.3
2014-Jul-27 09:20N 37°57' W 000°10'1816.3
2014-Jul-27 08:13N 37°42' W 000°23'1116.1
2014-Jul-27 07:31N 37°33' W 000°31'2015.9
2014-Jul-27 06:15N 37°19' W 000°50'23016.3
2014-Jul-26 16:07N 35°59' W 005°19'1218.9
2014-Jul-26 15:30N 35°56' W 005°33'1819.3
2014-Jul-26 14:33N 35°52' W 005°54'  

Dump ship's entire track history